Time;durP1;ratioP1;P1;durP2;ratioP2;P2;SDS_P1;SDS_P2;PMS_P1;PMS_P2;Temp;Humidity;BMP_temperature;BMP_pressure;BME280_temperature;BME280_humidity;BME280_pressure;Samples;Min_cycle;Max_cycle;Signal;HPM_P1;HPM_P2
2021/11/17 02:26:00;;;;;;;48.70;30.65;;;9.40;73.40;;;;;;5052871;28;20036;-73
2021/11/17 02:28:34;;;;;;;43.35;29.50;;;9.40;73.20;;;;;;5053414;28;20025;-70
2021/11/17 02:31:33;;;;;;;45.25;30.85;;;9.50;73.20;;;;;;5053112;28;20036;-75
2021/11/17 02:34:14;;;;;;;46.05;28.80;;;9.50;72.90;;;;;;5053373;28;20017;-73
2021/11/17 02:37:01;;;;;;;43.28;29.35;;;9.50;72.90;;;;;;5053551;28;20040;-73
2021/11/17 02:40:11;;;;;;;47.85;30.75;;;9.60;72.90;;;;;;5053645;28;20029;-77
2021/11/17 02:43:08;;;;;;;39.92;29.13;;;9.60;72.60;;;;;;4990071;28;20030;-73
2021/11/17 02:45:45;;;;;;;45.72;29.73;;;9.60;72.70;;;;;;4991375;28;20022;-66
2021/11/17 02:48:40;;;;;;;43.80;29.13;;;9.60;72.70;;;;;;4991096;28;20097;-76
2021/11/17 02:51:29;;;;;;;48.00;30.42;;;9.50;72.60;;;;;;4989811;28;20092;-69
2021/11/17 02:54:10;;;;;;;47.63;30.17;;;9.50;72.80;;;;;;4990781;28;20093;-76
2021/11/17 02:57:02;;;;;;;43.63;29.60;;;9.60;72.70;;;;;;4991127;28;20109;-74
2021/11/17 02:59:52;;;;;;;44.33;30.45;;;9.60;72.50;;;;;;4961915;28;20050;-69
2021/11/17 03:02:39;;;;;;;46.58;29.95;;;9.50;72.60;;;;;;4990730;28;20066;-69
2021/11/17 03:05:24;;;;;;;43.88;31.35;;;9.60;72.70;;;;;;4990561;28;20062;-71
2021/11/17 03:08:01;;;;;;;48.63;31.45;;;9.60;72.60;;;;;;4989522;28;20037;-71
2021/11/17 03:10:28;;;;;;;46.08;30.77;;;9.60;72.70;;;;;;4990942;28;20081;-76
2021/11/17 03:13:12;;;;;;;44.28;30.50;;;9.60;72.60;;;;;;5011553;28;20165;-74
2021/11/17 03:15:38;;;;;;;47.42;33.05;;;9.60;72.70;;;;;;5052513;28;20029;-69
2021/11/17 03:18:31;;;;;;;45.50;30.98;;;9.60;72.60;;;;;;5052719;28;20025;-71
2021/11/17 03:21:07;;;;;;;45.00;29.83;;;9.60;72.50;;;;;;5052553;28;20103;-71
2021/11/17 03:23:41;;;;;;;47.65;31.15;;;9.60;72.60;;;;;;5052856;28;20036;-75
2021/11/17 03:26:22;;;;;;;44.55;31.25;;;9.70;73.30;;;;;;5051995;28;20236;-72
2021/11/17 03:28:48;;;;;;;49.42;31.38;;;9.70;72.60;;;;;;5052092;28;20029;-69
2021/11/17 03:31:35;;;;;;;43.83;30.35;;;9.70;72.30;;;;;;5052384;28;20059;-72
2021/11/17 03:34:06;;;;;;;46.72;30.20;;;9.80;72.30;;;;;;5051837;28;20021;-68
2021/11/17 03:36:44;;;;;;;42.72;30.52;;;9.80;72.20;;;;;;5052435;28;20086;-72
2021/11/17 03:39:27;;;;;;;47.42;31.15;;;9.80;72.20;;;;;;5051937;28;20029;-75
2021/11/17 03:42:22;;;;;;;45.88;31.83;;;9.80;72.00;;;;;;5051900;28;20119;-75
2021/11/17 03:44:56;;;;;;;45.05;31.17;;;9.80;71.70;;;;;;5050786;28;20044;-70
2021/11/17 03:48:00;;;;;;;44.03;32.00;;;9.80;71.90;;;;;;5052503;28;20025;-69
2021/11/17 03:51:18;;;;;;;47.35;32.03;;;9.80;72.00;;;;;;5052901;28;20029;-71
2021/11/17 03:53:55;;;;;;;46.67;31.55;;;9.80;72.10;;;;;;4991364;28;20101;-70
2021/11/17 03:56:51;;;;;;;45.92;31.15;;;9.80;71.80;;;;;;4991273;28;20073;-72
2021/11/17 03:59:36;;;;;;;43.08;30.95;;;9.80;71.80;;;;;;4990713;28;20479;-75
2021/11/17 04:02:31;;;;;;;44.65;31.50;;;9.90;71.80;;;;;;4989713;28;20042;-71
2021/11/17 04:05:15;;;;;;;50.33;32.60;;;9.90;71.70;;;;;;4990616;28;20053;-71
2021/11/17 04:08:24;;;;;;;50.15;31.38;;;9.90;71.60;;;;;;4991584;28;20022;-76
2021/11/17 04:11:08;;;;;;;48.15;31.40;;;9.90;71.50;;;;;;4990742;28;20426;-73
2021/11/17 04:13:36;;;;;;;;;;;10.00;71.50;;;;;;4991517;28;20026;-72
2021/11/17 04:16:21;;;;;;;48.85;30.77;;;10.00;71.40;;;;;;4990573;28;19906;-73
2021/11/17 04:19:04;;;;;;;46.78;31.38;;;10.00;71.40;;;;;;4958531;28;20035;-73
2021/11/17 04:22:07;;;;;;;44.63;31.00;;;10.10;71.10;;;;;;4973962;28;20538;-70
2021/11/17 04:24:35;;;;;;;43.40;30.52;;;10.00;71.30;;;;;;5014837;28;20029;-72
2021/11/17 04:27:16;;;;;;;45.60;31.27;;;10.00;71.30;;;;;;5051433;28;20029;-73
2021/11/17 04:30:15;;;;;;;49.70;31.48;;;10.10;71.40;;;;;;5034258;28;20107;-75
2021/11/17 04:33:03;;;;;;;47.25;32.35;;;10.10;71.20;;;;;;5034249;28;20076;-70
2021/11/17 04:36:07;;;;;;;43.30;29.70;;;10.10;71.10;;;;;;5051591;28;20025;-71
2021/11/17 04:39:10;;;;;;;46.05;30.17;;;10.20;71.10;;;;;;5051920;28;20113;-70
2021/11/17 04:41:54;;;;;;;45.72;31.77;;;10.20;70.90;;;;;;5051925;28;20029;-75
2021/11/17 04:44:44;;;;;;;49.38;32.15;;;10.20;70.90;;;;;;5051753;28;20021;-70
2021/11/17 04:47:43;;;;;;;47.30;31.00;;;10.20;70.90;;;;;;5051603;28;20032;-70
2021/11/17 04:50:11;;;;;;;45.38;29.60;;;10.20;70.90;;;;;;5021619;28;20499;-73
2021/11/17 04:52:37;;;;;;;50.85;32.22;;;10.20;71.00;;;;;;5055795;28;20064;-70
2021/11/17 04:55:02;;;;;;;43.83;31.00;;;10.20;70.90;;;;;;5037586;28;20052;-72
2021/11/17 04:57:47;;;;;;;44.67;30.88;;;10.10;70.90;;;;;;5055292;28;20033;-73
2021/11/17 05:00:18;;;;;;;44.78;32.60;;;10.10;71.00;;;;;;5036968;28;20028;-72
2021/11/17 05:02:50;;;;;;;46.40;31.77;;;10.10;71.00;;;;;;5055163;28;20437;-69
2021/11/17 05:05:37;;;;;;;45.28;32.20;;;10.10;71.20;;;;;;5054923;28;20040;-73
2021/11/17 05:08:33;;;;;;;46.42;31.65;;;10.00;71.20;;;;;;5037006;28;20032;-70
2021/11/17 05:11:33;;;;;;;48.13;31.48;;;10.00;71.10;;;;;;5055208;28;20032;-73
2021/11/17 05:14:10;;;;;;;45.78;31.80;;;10.00;71.40;;;;;;5054570;28;20052;-71
2021/11/17 05:16:45;;;;;;;49.45;32.28;;;10.00;71.50;;;;;;5055522;28;20082;-75
2021/11/17 05:19:35;;;;;;;48.95;32.53;;;10.00;71.60;;;;;;5054705;28;20025;-69
2021/11/17 05:22:22;;;;;;;50.60;32.60;;;10.00;71.60;;;;;;5034222;28;20050;-72
2021/11/17 05:24:56;;;;;;;52.10;31.48;;;9.90;71.40;;;;;;5034978;28;20025;-68
2021/11/17 05:27:28;;;;;;;48.20;33.05;;;10.00;71.60;;;;;;5017299;28;20056;-68
2021/11/17 05:30:19;;;;;;;47.95;32.40;;;9.90;71.70;;;;;;5034694;28;20025;-69
2021/11/17 05:33:10;;;;;;;47.08;32.78;;;9.90;71.80;;;;;;5017387;28;20505;-68
2021/11/17 05:36:11;;;;;;;50.15;32.42;;;10.00;71.80;;;;;;5017155;28;20477;-66
2021/11/17 05:38:43;;;;;;;48.53;31.55;;;9.90;71.80;;;;;;4998262;28;20044;-73
2021/11/17 05:41:38;;;;;;;46.53;31.98;;;10.00;71.80;;;;;;5034373;28;20113;-76
2021/11/17 05:44:16;;;;;;;46.20;32.53;;;9.90;71.70;;;;;;5021288;28;20382;-76
2021/11/17 05:46:54;;;;;;;53.30;32.35;;;10.00;71.80;;;;;;5034845;28;20022;-70
2021/11/17 05:49:38;;;;;;;48.25;33.33;;;9.90;71.80;;;;;;5016556;28;20477;-72
2021/11/17 05:52:10;;;;;;;;;;;10.00;71.80;;;;;;5034427;28;20034;-70
2021/11/17 05:54:55;;;;;;;48.22;32.42;;;10.00;71.70;;;;;;5016866;28;19912;-73
2021/11/17 05:57:43;;;;;;;50.15;31.88;;;10.10;71.70;;;;;;5034049;28;20025;-68
2021/11/17 06:00:34;;;;;;;48.00;33.33;;;10.10;71.70;;;;;;5033656;28;20033;-72
2021/11/17 06:03:20;;;;;;;51.65;34.05;;;10.10;71.80;;;;;;5034285;28;20037;-72
2021/11/17 06:05:48;;;;;;;51.15;34.65;;;10.20;71.80;;;;;;5017020;28;20099;-72
2021/11/17 06:08:14;;;;;;;51.67;33.97;;;10.10;71.90;;;;;;5033767;28;20073;-73
2021/11/17 06:10:44;;;;;;;53.40;35.63;;;10.20;72.10;;;;;;5034203;28;20111;-69
2021/11/17 06:13:12;;;;;;;58.20;36.28;;;10.20;72.10;;;;;;5016535;28;20056;-76
2021/11/17 06:18:31;;;;;;;60.75;37.60;;;10.30;72.00;;;;;;5034624;28;20107;-71
2021/11/17 06:20:57;;;;;;;54.60;35.20;;;10.30;71.90;;;;;;5046355;28;20052;-73
2021/11/17 06:23:34;;;;;;;56.97;36.70;;;10.40;71.80;;;;;;5052043;28;20024;-70
2021/11/17 06:26:07;;;;;;;63.17;36.60;;;10.40;71.50;;;;;;5053321;28;20055;-75
2021/11/17 06:28:55;;;;;;;56.88;35.90;;;10.40;71.40;;;;;;5054605;28;20515;-77
2021/11/17 06:31:25;;;;;;;55.55;35.38;;;10.40;71.20;;;;;;5053546;28;20251;-74
2021/11/17 06:33:51;;;;;;;63.55;36.38;;;10.40;71.10;;;;;;5018755;28;20029;-68
2021/11/17 06:36:17;;;;;;;54.58;35.17;;;10.40;71.00;;;;;;5051731;28;20025;-65
2021/11/17 06:38:44;;;;;;;57.28;36.25;;;10.30;70.90;;;;;;5052582;28;20398;-67
2021/11/17 06:41:10;;;;;;;53.70;35.58;;;10.30;70.90;;;;;;5051752;28;20029;-67
2021/11/17 06:43:36;;;;;;;59.58;33.50;;;10.40;70.90;;;;;;5034502;28;20109;-64
2021/11/17 06:46:03;;;;;;;47.60;30.90;;;10.40;70.90;;;;;;5017578;28;20021;-72
2021/11/17 06:48:30;;;;;;;48.17;31.52;;;10.40;70.60;;;;;;5052500;28;20486;-65
2021/11/17 06:50:57;;;;;;;60.40;33.50;;;10.40;70.60;;;;;;5034279;28;20021;-65
2021/11/17 06:53:25;;;;;;;56.40;36.15;;;10.40;70.50;;;;;;5051333;28;20108;-62
2021/11/17 06:55:51;;;;;;;44.90;29.33;;;10.50;70.60;;;;;;5052485;28;20037;-71
2021/11/17 06:58:17;;;;;;;48.17;29.58;;;10.40;70.20;;;;;;5051024;28;20029;-60
2021/11/17 07:00:46;;;;;;;49.10;28.48;;;10.40;70.20;;;;;;5033673;28;20032;-64
2021/11/17 07:03:12;;;;;;;45.40;27.88;;;10.30;70.30;;;;;;5050974;28;20036;-66
2021/11/17 07:05:38;;;;;;;46.50;28.67;;;10.30;70.30;;;;;;5051563;28;20367;-64
2021/11/17 07:08:04;;;;;;;42.53;26.35;;;10.40;70.40;;;;;;5051295;28;20029;-67
2021/11/17 07:10:33;;;;;;;45.70;28.30;;;10.40;70.40;;;;;;5034348;28;20037;-69
2021/11/17 07:12:59;;;;;;;45.78;27.70;;;10.40;70.20;;;;;;5050116;28;20473;-69
2021/11/17 07:15:26;;;;;;;44.50;27.38;;;10.50;70.20;;;;;;5051158;28;20028;-63
2021/11/17 07:17:52;;;;;;;45.63;24.00;;;10.50;70.10;;;;;;5050782;28;20032;-68
2021/11/17 07:20:18;;;;;;;42.38;23.25;;;10.60;69.70;;;;;;5051530;28;20075;-72
2021/11/17 07:22:45;;;;;;;36.92;21.42;;;10.50;69.20;;;;;;5051832;28;20033;-64
2021/11/17 07:25:15;;;;;;;35.50;21.73;;;10.50;69.30;;;;;;5051199;28;20029;-63
2021/11/17 07:27:42;;;;;;;33.97;21.30;;;10.50;69.30;;;;;;5051472;28;20021;-60
2021/11/17 07:30:11;;;;;;;36.78;23.73;;;10.60;69.20;;;;;;5050935;28;20059;-67
2021/11/17 07:32:36;;;;;;;31.85;19.98;;;10.60;69.10;;;;;;5048579;28;20085;-61
2021/11/17 07:35:04;;;;;;;35.20;21.30;;;10.60;69.00;;;;;;5049140;28;20036;-67
2021/11/17 07:37:30;;;;;;;36.80;22.20;;;10.50;69.20;;;;;;5031449;28;20025;-66
2021/11/17 07:39:56;;;;;;;39.15;21.95;;;10.40;69.40;;;;;;5051739;28;20540;-60
2021/11/17 07:42:22;;;;;;;33.60;21.17;;;10.50;69.60;;;;;;5050782;28;20108;-61
2021/11/17 07:44:49;;;;;;;32.42;20.13;;;10.50;69.60;;;;;;5050870;28;20029;-62
2021/11/17 07:47:15;;;;;;;29.27;19.33;;;10.50;69.40;;;;;;5049431;28;20025;-63
2021/11/17 07:49:41;;;;;;;36.10;19.30;;;10.40;69.40;;;;;;5052137;28;20367;-68
2021/11/17 07:52:08;;;;;;;27.58;18.88;;;10.40;69.50;;;;;;5033516;28;20451;-66
2021/11/17 07:54:34;;;;;;;32.15;19.95;;;10.40;69.40;;;;;;5033230;28;20031;-62
2021/11/17 07:57:03;;;;;;;33.72;20.92;;;10.30;69.60;;;;;;5033163;28;20025;-62
2021/11/17 07:59:30;;;;;;;33.03;18.95;;;10.30;69.90;;;;;;5032905;28;20055;-62
2021/11/17 08:02:01;;;;;;;31.45;18.83;;;10.30;70.10;;;;;;5033491;28;20103;-63
2021/11/17 08:04:34;;;;;;;30.25;18.95;;;10.40;70.70;;;;;;5033046;28;20197;-63
2021/11/17 08:07:01;;;;;;;30.75;19.58;;;10.50;69.80;;;;;;5033427;28;20036;-66
2021/11/17 08:09:29;;;;;;;30.77;20.30;;;10.50;69.70;;;;;;5033013;28;20060;-67
2021/11/17 08:11:55;;;;;;;27.75;19.27;;;10.60;69.60;;;;;;5051053;28;20104;-58
2021/11/17 08:14:21;;;;;;;31.48;19.63;;;10.60;69.40;;;;;;5050269;28;20435;-60
2021/11/17 08:16:47;;;;;;;28.33;19.38;;;10.70;69.20;;;;;;5033173;28;20033;-63
2021/11/17 08:19:13;;;;;;;31.52;18.60;;;10.70;68.90;;;;;;5032689;28;20028;-63
2021/11/17 08:21:39;;;;;;;28.45;17.40;;;10.80;68.80;;;;;;5032688;28;20158;-66
2021/11/17 08:24:05;;;;;;;30.65;17.65;;;10.80;68.30;;;;;;5051947;28;20067;-61
2021/11/17 08:26:31;;;;;;;28.70;17.17;;;10.70;68.40;;;;;;5036561;28;20028;-55
2021/11/17 08:28:57;;;;;;;26.75;17.60;;;10.70;68.60;;;;;;5054571;28;20033;-63
2021/11/17 08:31:24;;;;;;;29.48;17.52;;;10.70;68.70;;;;;;5054549;28;20029;-61
2021/11/17 08:33:52;;;;;;;31.48;18.73;;;10.70;68.70;;;;;;5054668;28;20027;-63
2021/11/17 08:36:17;;;;;;;26.80;17.25;;;10.80;68.80;;;;;;5035955;28;20032;-61
2021/11/17 08:38:43;;;;;;;28.00;18.25;;;10.80;68.70;;;;;;5037561;28;20025;-66
2021/11/17 08:41:11;;;;;;;32.45;18.17;;;10.80;68.70;;;;;;5036998;28;20036;-78
2021/11/17 08:43:38;;;;;;;28.02;17.70;;;10.80;68.70;;;;;;5054559;28;20067;-68
2021/11/17 08:46:05;;;;;;;35.97;18.52;;;10.80;68.90;;;;;;5036825;28;20029;-68
2021/11/17 08:48:34;;;;;;;31.55;19.10;;;10.80;68.70;;;;;;5036024;28;20029;-63
2021/11/17 08:51:03;;;;;;;32.08;17.33;;;10.80;68.70;;;;;;5054723;28;20127;-63
2021/11/17 08:53:31;;;;;;;25.90;16.92;;;10.80;68.50;;;;;;5035897;28;20029;-70
2021/11/17 08:55:59;;;;;;;27.27;16.13;;;10.80;68.60;;;;;;5054091;28;20029;-63
2021/11/17 08:58:26;;;;;;;26.15;15.88;;;10.80;68.30;;;;;;5053815;28;20461;-63
2021/11/17 09:00:52;;;;;;;23.80;15.82;;;10.80;68.10;;;;;;5054388;28;20079;-65
2021/11/17 09:03:19;;;;;;;28.17;16.65;;;10.70;68.30;;;;;;5035912;28;20131;-65
2021/11/17 09:05:51;;;;;;;24.38;15.98;;;10.70;68.40;;;;;;5053550;28;20044;-56
2021/11/17 09:08:19;;;;;;;22.08;14.77;;;10.70;68.10;;;;;;5035453;28;20124;-63
2021/11/17 09:10:48;;;;;;;24.95;15.80;;;10.70;68.10;;;;;;5053757;28;20481;-61
2021/11/17 09:13:15;;;;;;;28.50;17.73;;;10.80;68.20;;;;;;5052795;28;20060;-57
2021/11/17 09:15:43;;;;;;;31.35;17.15;;;10.80;68.30;;;;;;5053700;28;20060;-68
2021/11/17 09:18:12;;;;;;;38.00;17.25;;;10.80;68.30;;;;;;5053369;28;20029;-67
2021/11/17 09:20:38;;;;;;;27.50;15.75;;;10.90;68.30;;;;;;5053674;28;20135;-61
2021/11/17 09:23:08;;;;;;;23.38;14.10;;;11.00;68.00;;;;;;5036198;28;20124;-69
2021/11/17 09:25:36;;;;;;;19.20;12.40;;;11.00;67.50;;;;;;5035223;28;20025;-60
2021/11/17 09:28:03;;;;;;;24.10;13.45;;;11.00;67.00;;;;;;5036097;28;20025;-65
2021/11/17 09:30:31;;;;;;;22.42;12.18;;;11.00;67.20;;;;;;5053562;28;20413;-72
2021/11/17 09:33:00;;;;;;;20.90;12.82;;;11.10;66.90;;;;;;5036145;28;20032;-64
2021/11/17 09:35:31;;;;;;;18.10;11.32;;;11.20;66.50;;;;;;5053037;28;20169;-61
2021/11/17 09:37:58;;;;;;;19.23;11.45;;;11.20;66.10;;;;;;5035316;28;20036;-65
2021/11/17 09:40:39;;;;;;;14.52;10.02;;;11.20;65.80;;;;;;5035784;28;20057;-59
2021/11/17 09:43:09;;;;;;;14.35;10.50;;;11.20;65.40;;;;;;5035844;28;20079;-63
2021/11/17 09:45:36;;;;;;;14.52;9.35;;;11.20;65.20;;;;;;5034604;28;20035;-65
2021/11/17 09:48:03;;;;;;;17.88;10.35;;;11.30;65.00;;;;;;5035530;28;20036;-64
2021/11/17 09:50:37;;;;;;;16.90;9.73;;;11.20;64.80;;;;;;5052722;28;20059;-64
2021/11/17 09:53:14;;;;;;;13.10;9.27;;;11.30;64.80;;;;;;5054234;28;20029;-67
2021/11/17 09:55:46;;;;;;;12.55;8.55;;;11.30;64.10;;;;;;5053538;28;20059;-66
2021/11/17 09:58:22;;;;;;;14.57;8.57;;;11.20;63.70;;;;;;5035439;28;20048;-66
2021/11/17 10:00:58;;;;;;;15.80;8.00;;;11.20;63.80;;;;;;5035396;28;20051;-62
2021/11/17 10:03:53;;;;;;;12.05;7.63;;;11.20;63.20;;;;;;5051585;28;20037;-63
2021/11/17 10:15:16;;;;;;;11.23;7.22;;;11.30;62.80;;;;;;5038722;28;20043;-67
2021/11/17 10:17:53;;;;;;;9.32;6.35;;;11.30;62.90;;;;;;5052583;28;20094;-64
2021/11/17 10:20:54;;;;;;;10.95;6.30;;;11.30;62.30;;;;;;5033820;28;20453;-64
2021/11/17 10:23:54;;;;;;;9.90;6.60;;;11.30;62.30;;;;;;5012394;28;20485;-63
2021/11/17 10:26:21;;;;;;;10.70;6.60;;;11.20;62.40;;;;;;5028461;28;20517;-64
2021/11/17 10:28:53;;;;;;;11.13;6.30;;;11.20;62.40;;;;;;5033088;28;20029;-63
2021/11/17 10:31:32;;;;;;;10.35;6.35;;;11.20;62.60;;;;;;5034173;28;20078;-63
2021/11/17 10:34:18;;;;;;;9.18;6.07;;;11.30;62.60;;;;;;5052745;28;20429;-60
2021/11/17 10:36:44;;;;;;;12.40;6.43;;;11.20;62.40;;;;;;5052233;28;20029;-65
2021/11/17 10:39:18;;;;;;;9.90;6.35;;;11.20;62.50;;;;;;5051842;28;20032;-64
2021/11/17 10:42:02;;;;;;;10.05;6.22;;;11.30;62.60;;;;;;5051729;28;20029;-62
2021/11/17 10:44:54;;;;;;;;;;;11.30;62.20;;;;;;5051465;28;20340;-65
2021/11/17 10:47:29;;;;;;;13.02;5.88;;;11.40;61.70;;;;;;5048148;28;20324;-69
2021/11/17 10:50:04;;;;;;;10.45;5.93;;;11.40;61.60;;;;;;5051508;28;20124;-67
2021/11/17 10:52:58;;;;;;;10.52;6.43;;;11.40;61.50;;;;;;5051449;28;20021;-67
2021/11/17 10:55:23;;;;;;;;;;;11.30;61.20;;;;;;5033611;28;20025;-60
2021/11/17 10:57:49;;;;;;;8.57;5.70;;;11.40;61.20;;;;;;5034143;28;19927;-62
2021/11/17 11:00:19;;;;;;;11.63;5.63;;;11.40;61.10;;;;;;5051727;28;20458;-67
2021/11/17 11:02:46;;;;;;;14.50;5.97;;;11.40;61.30;;;;;;5052389;28;20037;-72
2021/11/17 11:05:21;;;;;;;13.23;5.75;;;11.40;61.10;;;;;;5034239;28;20430;-64
2021/11/17 11:08:01;;;;;;;10.10;5.68;;;11.30;61.10;;;;;;5034186;28;20029;-68
2021/11/17 11:10:49;;;;;;;11.50;5.88;;;11.30;61.00;;;;;;5051550;28;20032;-63
2021/11/17 11:13:37;;;;;;;8.57;5.60;;;11.10;61.50;;;;;;5017776;28;20029;-66
2021/11/17 11:16:23;;;;;;;8.85;5.75;;;11.20;61.70;;;;;;5042082;28;20037;-61
2021/11/17 11:19:17;;;;;;;8.82;4.88;;;11.30;61.50;;;;;;5033925;28;20027;-64
2021/11/17 11:21:46;;;;;;;8.15;5.78;;;11.30;61.30;;;;;;5033917;28;20102;-72
2021/11/17 11:24:29;;;;;;;10.63;5.55;;;11.30;61.30;;;;;;5033418;28;20104;-61
2021/11/17 11:26:58;;;;;;;8.98;5.57;;;11.30;61.00;;;;;;5050623;28;20067;-66
2021/11/17 11:29:29;;;;;;;7.45;5.53;;;11.30;61.10;;;;;;5050773;28;20474;-62
2021/11/17 11:32:19;;;;;;;8.73;5.53;;;11.40;61.20;;;;;;5051250;28;20036;-74
2021/11/17 11:35:00;;;;;;;12.32;6.45;;;11.40;61.30;;;;;;5040237;28;20040;-69
2021/11/17 11:37:26;;;;;;;12.27;5.85;;;11.50;60.90;;;;;;5032618;28;20032;-72
2021/11/17 11:40:01;;;;;;;10.43;6.05;;;11.40;60.70;;;;;;5051575;28;20021;-67
2021/11/17 11:42:55;;;;;;;8.57;5.50;;;11.40;61.00;;;;;;5032896;28;20504;-70
2021/11/17 11:45:26;;;;;;;15.02;5.85;;;11.40;60.90;;;;;;5033175;28;20465;-64
2021/11/17 11:48:06;;;;;;;11.13;5.70;;;11.40;60.90;;;;;;5051501;28;20457;-63
2021/11/17 11:50:32;;;;;;;11.93;5.82;;;11.50;60.90;;;;;;5050341;28;20197;-65
2021/11/17 11:53:06;;;;;;;9.98;4.75;;;11.60;60.90;;;;;;5033507;28;20478;-63
2021/11/17 11:55:50;;;;;;;16.25;6.13;;;11.50;60.40;;;;;;5050576;28;20025;-65
2021/11/17 11:58:24;;;;;;;10.85;5.70;;;11.50;60.60;;;;;;5050295;28;20025;-68
2021/11/17 12:01:03;;;;;;;10.82;5.90;;;11.50;60.70;;;;;;5032895;28;20436;-64
2021/11/17 12:03:32;;;;;;;8.48;5.30;;;11.50;60.60;;;;;;5049809;28;20040;-62
2021/11/17 12:06:04;;;;;;;8.25;5.45;;;11.50;60.60;;;;;;5050270;28;20434;-66
2021/11/17 12:08:41;;;;;;;15.13;5.18;;;11.50;60.50;;;;;;5032964;28;20032;-65
2021/11/17 12:11:07;;;;;;;13.88;5.95;;;11.50;61.00;;;;;;5032759;28;20036;-64
2021/11/17 12:13:40;;;;;;;7.40;4.60;;;11.50;60.50;;;;;;5049852;28;20021;-62
2021/11/17 12:16:11;;;;;;;7.72;5.40;;;11.40;60.40;;;;;;5032444;28;20063;-60
2021/11/17 12:18:47;;;;;;;15.30;6.50;;;11.50;60.40;;;;;;5031789;28;20071;-60
2021/11/17 12:21:24;;;;;;;10.57;4.72;;;11.50;60.20;;;;;;5050914;28;20103;-64
2021/11/17 12:24:23;;;;;;;18.63;9.18;;;11.40;59.80;;;;;;5033236;28;20080;-63
2021/11/17 12:27:01;;;;;;;7.20;4.75;;;11.30;60.10;;;;;;5033021;28;20481;-67
2021/11/17 12:29:41;;;;;;;6.60;4.55;;;11.30;59.70;;;;;;5050397;28;20021;-64
2021/11/17 12:32:22;;;;;;;7.97;5.28;;;11.20;60.10;;;;;;5033082;28;20398;-67
2021/11/17 12:34:51;;;;;;;7.72;5.28;;;11.30;60.40;;;;;;5032761;28;20029;-67
2021/11/17 12:37:34;;;;;;;11.15;5.82;;;11.30;60.50;;;;;;5050646;28;20079;-61
2021/11/17 12:40:08;;;;;;;6.82;4.82;;;11.20;60.60;;;;;;5051459;28;20029;-62
2021/11/17 12:42:51;;;;;;;17.05;6.28;;;11.30;60.70;;;;;;5032298;28;20040;-63
2021/11/17 12:45:38;;;;;;;10.55;5.55;;;11.30;60.70;;;;;;5051139;28;20064;-63
2021/11/17 12:48:21;;;;;;;8.23;5.38;;;11.40;60.70;;;;;;5033363;28;20067;-62
2021/11/17 12:50:56;;;;;;;6.60;4.78;;;11.30;60.40;;;;;;5032974;28;20029;-65
2021/11/17 12:53:39;;;;;;;10.38;5.70;;;11.30;60.20;;;;;;5050181;28;20028;-73
2021/11/17 12:56:14;;;;;;;7.90;5.05;;;11.20;60.30;;;;;;5033083;28;20052;-65
2021/11/17 12:58:44;;;;;;;8.75;5.50;;;11.10;60.50;;;;;;5050667;28;20029;-67
2021/11/17 13:01:10;;;;;;;8.77;5.55;;;11.20;60.80;;;;;;5032955;28;20025;-70
2021/11/17 13:03:47;;;;;;;9.60;5.68;;;11.10;60.70;;;;;;5050202;28;20030;-62
2021/11/17 13:06:31;;;;;;;13.90;6.28;;;11.10;60.90;;;;;;5032776;28;20025;-65
2021/11/17 13:09:23;;;;;;;13.38;8.13;;;11.00;61.20;;;;;;5032974;28;20033;-63
2021/11/17 13:11:56;;;;;;;13.52;6.40;;;11.00;61.20;;;;;;5053026;28;20039;-65
2021/11/17 13:14:31;;;;;;;;;;;11.00;61.30;;;;;;5053959;28;20016;-63
2021/11/17 13:17:25;;;;;;;7.55;6.15;;;11.00;61.50;;;;;;5054760;28;19909;-63
2021/11/17 13:19:56;;;;;;;10.73;6.18;;;11.10;61.40;;;;;;5047928;28;20114;-62
2021/11/17 13:22:25;;;;;;;8.95;6.53;;;11.10;61.30;;;;;;5053108;28;20037;-63
2021/11/17 13:25:12;;;;;;;12.68;6.68;;;11.10;61.40;;;;;;5036005;28;20426;-60
2021/11/17 13:28:05;;;;;;;9.77;6.43;;;11.10;61.30;;;;;;5053042;28;20083;-65
2021/11/17 13:30:50;;;;;;;18.20;6.78;;;11.10;61.20;;;;;;5045827;28;20087;-59
2021/11/17 13:33:23;;;;;;;9.57;6.25;;;11.10;61.40;;;;;;5035734;28;20033;-63
2021/11/17 13:36:09;;;;;;;10.65;6.13;;;11.10;61.40;;;;;;5053726;28;20123;-65
2021/11/17 13:38:36;;;;;;;13.93;6.50;;;11.10;61.50;;;;;;5036620;28;20029;-66
2021/11/17 13:41:11;;;;;;;9.05;6.15;;;11.20;62.00;;;;;;5055208;28;20029;-70
2021/11/17 13:43:54;;;;;;;12.68;7.80;;;11.30;62.00;;;;;;5036584;28;20464;-63
2021/11/17 13:46:20;;;;;;;9.18;6.93;;;11.30;61.30;;;;;;5053338;28;20049;-62
2021/11/17 13:48:49;;;;;;;10.07;6.72;;;11.30;61.20;;;;;;5051303;28;20486;-66
2021/11/17 13:51:20;;;;;;;7.75;6.40;;;11.30;61.30;;;;;;5035348;28;20111;-63
2021/11/17 13:53:46;;;;;;;10.82;6.65;;;11.40;61.20;;;;;;5052439;28;20029;-65
2021/11/17 13:56:26;;;;;;;13.85;7.07;;;11.30;61.00;;;;;;5035072;28;20025;-61
2021/11/17 13:58:54;;;;;;;11.70;7.25;;;11.20;61.30;;;;;;5034944;28;20036;-62
2021/11/17 14:01:20;;;;;;;9.38;6.40;;;11.20;61.60;;;;;;5034768;28;20073;-65
2021/11/17 14:03:46;;;;;;;9.18;6.90;;;11.20;61.60;;;;;;5034350;28;20032;-63
2021/11/17 14:06:15;;;;;;;8.35;6.45;;;11.10;61.80;;;;;;5035021;28;20029;-62
2021/11/17 14:08:42;;;;;;;10.80;5.93;;;11.10;61.90;;;;;;5034587;28;20032;-65
2021/11/17 14:11:08;;;;;;;14.15;7.25;;;11.10;61.90;;;;;;5035433;28;20106;-65
2021/11/17 14:13:34;;;;;;;12.10;8.00;;;11.10;62.70;;;;;;5033937;28;20484;-67
2021/11/17 14:16:00;;;;;;;10.55;7.50;;;11.00;62.10;;;;;;5052872;28;20033;-66
2021/11/17 14:18:28;;;;;;;10.20;6.97;;;11.00;62.20;;;;;;5052446;28;20154;-71
2021/11/17 14:20:55;;;;;;;10.85;7.10;;;11.10;62.40;;;;;;5052221;28;20167;-69
2021/11/17 14:23:21;;;;;;;12.95;6.90;;;11.00;62.10;;;;;;5051920;28;20029;-58
2021/11/17 14:25:47;;;;;;;10.65;6.85;;;11.10;62.30;;;;;;5034059;28;20051;-62
2021/11/17 14:28:19;;;;;;;8.15;6.13;;;11.10;62.00;;;;;;5052472;28;20389;-61
2021/11/17 14:30:54;;;;;;;10.73;6.63;;;11.00;62.10;;;;;;5052168;28;20147;-59
2021/11/17 14:33:25;;;;;;;14.85;7.80;;;11.00;62.40;;;;;;5052146;28;20103;-58
2021/11/17 14:35:52;;;;;;;13.15;8.73;;;11.00;62.60;;;;;;5050932;28;20367;-64
2021/11/17 14:38:20;;;;;;;15.48;7.55;;;11.00;62.50;;;;;;5052341;28;20044;-63
2021/11/17 14:40:49;;;;;;;19.65;9.68;;;11.00;62.50;;;;;;5033493;28;20272;-62
2021/11/17 14:43:17;;;;;;;12.82;7.97;;;11.00;62.70;;;;;;5051814;28;20079;-62
2021/11/17 14:45:45;;;;;;;10.90;6.70;;;11.10;62.50;;;;;;5033143;28;20025;-58
2021/11/17 14:48:11;;;;;;;14.75;7.45;;;11.00;62.40;;;;;;5051943;28;20045;-63
2021/11/17 14:50:37;;;;;;;9.43;6.07;;;11.00;62.50;;;;;;5051196;28;20115;-60
2021/11/17 14:53:04;;;;;;;11.43;5.95;;;11.10;62.40;;;;;;5051682;28;20040;-63
2021/11/17 14:55:31;;;;;;;11.52;6.20;;;11.00;62.60;;;;;;5033277;28;20059;-54
2021/11/17 14:57:57;;;;;;;10.40;5.30;;;10.90;62.90;;;;;;5051507;28;20075;-63
2021/11/17 15:00:29;;;;;;;9.85;4.97;;;10.90;63.00;;;;;;5051389;28;20434;-63
2021/11/17 15:02:56;;;;;;;9.25;6.18;;;10.90;63.00;;;;;;5034197;28;20123;-61
2021/11/17 15:05:23;;;;;;;8.77;5.55;;;10.90;63.00;;;;;;5051734;28;20130;-62
2021/11/17 15:07:49;;;;;;;8.70;5.30;;;10.90;63.10;;;;;;5051150;28;20098;-67
2021/11/17 15:10:17;;;;;;;8.07;4.97;;;10.90;63.10;;;;;;5051607;28;20033;-64
2021/11/17 15:12:44;;;;;;;7.75;5.53;;;10.90;63.00;;;;;;5033343;28;20033;-61
2021/11/17 15:15:23;;;;;;;12.32;5.80;;;10.80;63.20;;;;;;5051545;28;20082;-63
2021/11/17 15:17:49;;;;;;;15.35;5.93;;;10.90;63.40;;;;;;5032783;28;20201;-61
2021/11/17 15:20:16;;;;;;;8.38;5.85;;;11.00;63.40;;;;;;5051072;28;20120;-56
2021/11/17 15:22:44;;;;;;;8.25;5.65;;;11.00;63.20;;;;;;5050966;28;20037;-62
2021/11/17 15:25:17;;;;;;;14.23;6.30;;;11.00;63.10;;;;;;5033913;28;20115;-63
2021/11/17 15:27:47;;;;;;;8.73;4.93;;;11.00;63.00;;;;;;5051438;28;20033;-61
2021/11/17 15:30:23;;;;;;;10.55;5.95;;;11.00;63.10;;;;;;5051436;28;20029;-64
2021/11/17 15:32:53;;;;;;;8.85;6.28;;;11.10;63.10;;;;;;5033027;28;20405;-62
2021/11/17 15:35:21;;;;;;;9.38;6.18;;;11.20;62.90;;;;;;5033854;28;20087;-64
2021/11/17 15:37:48;;;;;;;11.90;6.30;;;11.20;62.90;;;;;;5051040;28;20040;-65
2021/11/17 15:40:16;;;;;;;7.93;5.63;;;11.20;62.90;;;;;;5051402;28;20036;-64
2021/11/17 15:42:44;;;;;;;9.70;5.88;;;11.20;63.10;;;;;;5032903;28;20025;-58
2021/11/17 15:45:10;;;;;;;8.75;5.72;;;11.00;63.50;;;;;;5051694;28;20033;-63
2021/11/17 15:47:36;;;;;;;9.93;5.90;;;10.90;64.00;;;;;;5032938;28;20025;-64
2021/11/17 15:50:06;;;;;;;9.48;6.20;;;10.90;65.00;;;;;;5034036;28;20055;-64
2021/11/17 15:52:32;;;;;;;15.70;5.90;;;10.80;64.70;;;;;;5033297;28;20033;-66